sensor_id;sensor_type;location;lat;lon;timestamp;P1;durP1;ratioP1;P2;durP2;ratioP2
75488;SDS011;64069;46.396;48.102;2023-02-01T00:01:59;38.25;;;17.08;;
75488;SDS011;64069;46.396;48.102;2023-02-01T00:04:26;66.18;;;24.58;;
75488;SDS011;64069;46.396;48.102;2023-02-01T00:06:52;50.13;;;19.50;;
75488;SDS011;64069;46.396;48.102;2023-02-01T00:09:18;45.65;;;15.45;;
75488;SDS011;64069;46.396;48.102;2023-02-01T00:11:44;40.00;;;16.67;;
75488;SDS011;64069;46.396;48.102;2023-02-01T00:14:10;39.03;;;14.07;;
75488;SDS011;64069;46.396;48.102;2023-02-01T00:16:36;31.92;;;13.35;;
75488;SDS011;64069;46.396;48.102;2023-02-01T00:19:04;40.55;;;15.10;;
75488;SDS011;64069;46.396;48.102;2023-02-01T00:21:32;32.35;;;12.98;;
75488;SDS011;64069;46.396;48.102;2023-02-01T00:23:58;33.40;;;12.20;;
75488;SDS011;64069;46.396;48.102;2023-02-01T00:26:31;34.55;;;13.57;;
75488;SDS011;64069;46.396;48.102;2023-02-01T00:28:59;39.28;;;12.52;;
75488;SDS011;64069;46.396;48.102;2023-02-01T00:31:26;27.33;;;12.88;;
75488;SDS011;64069;46.396;48.102;2023-02-01T00:33:52;38.53;;;14.23;;
75488;SDS011;64069;46.396;48.102;2023-02-01T00:36:18;35.47;;;12.60;;
75488;SDS011;64069;46.396;48.102;2023-02-01T00:38:44;71.28;;;13.38;;
75488;SDS011;64069;46.396;48.102;2023-02-01T00:41:14;45.72;;;13.70;;
75488;SDS011;64069;46.396;48.102;2023-02-01T00:43:45;30.65;;;11.52;;
75488;SDS011;64069;46.396;48.102;2023-02-01T00:46:12;46.40;;;15.50;;
75488;SDS011;64069;46.396;48.102;2023-02-01T00:48:39;34.25;;;11.93;;
75488;SDS011;64069;46.396;48.102;2023-02-01T00:51:06;33.30;;;9.57;;
75488;SDS011;64069;46.396;48.102;2023-02-01T00:53:35;58.55;;;13.13;;
75488;SDS011;64069;46.396;48.102;2023-02-01T00:56:01;33.05;;;10.65;;
75488;SDS011;64069;46.396;48.102;2023-02-01T00:58:27;29.02;;;12.23;;
75488;SDS011;64069;46.396;48.102;2023-02-01T01:01:14;43.55;;;15.57;;
75488;SDS011;64069;46.396;48.102;2023-02-01T01:03:43;32.30;;;12.57;;
75488;SDS011;64069;46.396;48.102;2023-02-01T01:06:12;31.38;;;10.65;;
75488;SDS011;64069;46.396;48.102;2023-02-01T01:08:43;37.08;;;11.50;;
75488;SDS011;64069;46.396;48.102;2023-02-01T01:11:13;32.75;;;10.73;;
75488;SDS011;64069;46.396;48.102;2023-02-01T01:13:45;37.75;;;12.60;;
75488;SDS011;64069;46.396;48.102;2023-02-01T01:16:12;24.42;;;12.50;;
75488;SDS011;64069;46.396;48.102;2023-02-01T01:18:39;41.88;;;10.60;;
75488;SDS011;64069;46.396;48.102;2023-02-01T01:21:06;17.52;;;9.02;;
75488;SDS011;64069;46.396;48.102;2023-02-01T01:23:32;22.20;;;7.95;;
75488;SDS011;64069;46.396;48.102;2023-02-01T01:25:59;27.38;;;10.15;;
75488;SDS011;64069;46.396;48.102;2023-02-01T01:28:25;40.25;;;13.27;;
75488;SDS011;64069;46.396;48.102;2023-02-01T01:30:51;46.08;;;12.15;;
75488;SDS011;64069;46.396;48.102;2023-02-01T01:33:17;30.88;;;10.95;;
75488;SDS011;64069;46.396;48.102;2023-02-01T01:35:43;32.13;;;9.85;;
75488;SDS011;64069;46.396;48.102;2023-02-01T01:38:10;44.58;;;9.90;;
75488;SDS011;64069;46.396;48.102;2023-02-01T01:40:37;44.97;;;15.90;;
75488;SDS011;64069;46.396;48.102;2023-02-01T01:43:06;36.83;;;11.75;;
75488;SDS011;64069;46.396;48.102;2023-02-01T01:45:38;29.70;;;8.90;;
75488;SDS011;64069;46.396;48.102;2023-02-01T01:50:55;22.13;;;9.30;;
75488;SDS011;64069;46.396;48.102;2023-02-01T01:53:27;27.42;;;11.10;;
75488;SDS011;64069;46.396;48.102;2023-02-01T01:55:58;18.20;;;7.03;;
75488;SDS011;64069;46.396;48.102;2023-02-01T01:58:24;37.63;;;9.95;;
75488;SDS011;64069;46.396;48.102;2023-02-01T02:00:53;30.67;;;11.25;;
75488;SDS011;64069;46.396;48.102;2023-02-01T02:05:53;18.58;;;7.80;;
75488;SDS011;64069;46.396;48.102;2023-02-01T02:08:23;25.85;;;10.25;;
75488;SDS011;64069;46.396;48.102;2023-02-01T02:10:51;43.42;;;12.55;;
75488;SDS011;64069;46.396;48.102;2023-02-01T02:16:21;31.83;;;11.70;;
75488;SDS011;64069;46.396;48.102;2023-02-01T02:24:30;28.15;;;9.98;;
75488;SDS011;64069;46.396;48.102;2023-02-01T02:35:23;28.13;;;9.45;;
75488;SDS011;64069;46.396;48.102;2023-02-01T02:39:04;29.30;;;13.05;;
75488;SDS011;64069;46.396;48.102;2023-02-01T02:41:41;24.63;;;9.18;;
75488;SDS011;64069;46.396;48.102;2023-02-01T02:47:45;31.58;;;14.30;;
75488;SDS011;64069;46.396;48.102;2023-02-01T02:50:29;39.88;;;13.68;;
75488;SDS011;64069;46.396;48.102;2023-02-01T02:53:26;40.55;;;15.25;;
75488;SDS011;64069;46.396;48.102;2023-02-01T02:56:18;27.05;;;11.90;;
75488;SDS011;64069;46.396;48.102;2023-02-01T02:59:06;39.38;;;13.13;;
75488;SDS011;64069;46.396;48.102;2023-02-01T03:01:52;45.17;;;17.35;;
75488;SDS011;64069;46.396;48.102;2023-02-01T03:04:38;24.05;;;10.75;;
75488;SDS011;64069;46.396;48.102;2023-02-01T03:07:14;49.72;;;14.25;;
75488;SDS011;64069;46.396;48.102;2023-02-01T03:09:59;24.80;;;10.40;;
75488;SDS011;64069;46.396;48.102;2023-02-01T03:12:32;15.07;;;5.55;;
75488;SDS011;64069;46.396;48.102;2023-02-01T03:15:20;22.27;;;8.98;;
75488;SDS011;64069;46.396;48.102;2023-02-01T03:17:52;22.13;;;8.95;;
75488;SDS011;64069;46.396;48.102;2023-02-01T03:20:23;30.73;;;9.65;;
75488;SDS011;64069;46.396;48.102;2023-02-01T03:22:51;30.38;;;10.63;;
75488;SDS011;64069;46.396;48.102;2023-02-01T03:25:21;17.05;;;7.93;;
75488;SDS011;64069;46.396;48.102;2023-02-01T03:28:10;30.00;;;9.10;;
75488;SDS011;64069;46.396;48.102;2023-02-01T03:30:41;28.88;;;10.75;;
75488;SDS011;64069;46.396;48.102;2023-02-01T03:33:10;44.60;;;17.83;;
75488;SDS011;64069;46.396;48.102;2023-02-01T03:38:50;18.88;;;6.00;;
75488;SDS011;64069;46.396;48.102;2023-02-01T03:44:04;40.28;;;11.25;;
75488;SDS011;64069;46.396;48.102;2023-02-01T03:46:47;38.17;;;13.18;;
75488;SDS011;64069;46.396;48.102;2023-02-01T03:49:31;18.45;;;5.45;;
75488;SDS011;64069;46.396;48.102;2023-02-01T03:52:02;23.50;;;8.50;;
75488;SDS011;64069;46.396;48.102;2023-02-01T03:54:31;17.58;;;5.75;;
75488;SDS011;64069;46.396;48.102;2023-02-01T03:57:00;46.72;;;15.70;;
75488;SDS011;64069;46.396;48.102;2023-02-01T03:59:30;42.33;;;14.65;;
75488;SDS011;64069;46.396;48.102;2023-02-01T04:01:56;17.67;;;6.70;;
75488;SDS011;64069;46.396;48.102;2023-02-01T04:04:25;28.67;;;10.10;;
75488;SDS011;64069;46.396;48.102;2023-02-01T04:06:54;37.00;;;9.15;;
75488;SDS011;64069;46.396;48.102;2023-02-01T04:09:20;16.42;;;8.65;;
75488;SDS011;64069;46.396;48.102;2023-02-01T04:11:46;26.00;;;9.77;;
75488;SDS011;64069;46.396;48.102;2023-02-01T04:14:12;36.28;;;9.40;;
75488;SDS011;64069;46.396;48.102;2023-02-01T04:16:39;21.98;;;7.30;;
75488;SDS011;64069;46.396;48.102;2023-02-01T04:19:05;42.70;;;12.85;;
75488;SDS011;64069;46.396;48.102;2023-02-01T04:21:30;17.98;;;8.57;;
75488;SDS011;64069;46.396;48.102;2023-02-01T04:24:01;27.17;;;9.73;;
75488;SDS011;64069;46.396;48.102;2023-02-01T04:26:27;21.50;;;7.35;;
75488;SDS011;64069;46.396;48.102;2023-02-01T04:28:53;25.15;;;8.52;;
75488;SDS011;64069;46.396;48.102;2023-02-01T04:31:19;54.67;;;13.07;;
75488;SDS011;64069;46.396;48.102;2023-02-01T04:33:52;20.90;;;7.90;;
75488;SDS011;64069;46.396;48.102;2023-02-01T04:36:19;12.85;;;6.85;;
75488;SDS011;64069;46.396;48.102;2023-02-01T04:38:48;20.45;;;6.38;;
75488;SDS011;64069;46.396;48.102;2023-02-01T04:41:14;25.40;;;9.30;;
75488;SDS011;64069;46.396;48.102;2023-02-01T04:43:45;22.73;;;10.20;;
75488;SDS011;64069;46.396;48.102;2023-02-01T04:46:14;28.42;;;8.88;;
75488;SDS011;64069;46.396;48.102;2023-02-01T04:48:40;25.00;;;10.15;;
75488;SDS011;64069;46.396;48.102;2023-02-01T04:51:07;30.25;;;8.85;;
75488;SDS011;64069;46.396;48.102;2023-02-01T04:53:33;28.90;;;10.10;;
75488;SDS011;64069;46.396;48.102;2023-02-01T04:55:59;22.17;;;7.95;;
75488;SDS011;64069;46.396;48.102;2023-02-01T04:58:25;38.35;;;13.07;;
75488;SDS011;64069;46.396;48.102;2023-02-01T05:00:51;26.17;;;9.82;;
75488;SDS011;64069;46.396;48.102;2023-02-01T05:03:17;22.15;;;9.27;;
75488;SDS011;64069;46.396;48.102;2023-02-01T05:05:45;35.88;;;11.98;;
75488;SDS011;64069;46.396;48.102;2023-02-01T05:08:13;37.03;;;13.10;;
75488;SDS011;64069;46.396;48.102;2023-02-01T05:10:39;45.20;;;13.25;;
75488;SDS011;64069;46.396;48.102;2023-02-01T05:13:05;54.33;;;17.35;;
75488;SDS011;64069;46.396;48.102;2023-02-01T05:15:52;31.88;;;12.57;;
75488;SDS011;64069;46.396;48.102;2023-02-01T05:18:18;22.73;;;9.77;;
75488;SDS011;64069;46.396;48.102;2023-02-01T05:20:44;24.58;;;9.55;;
75488;SDS011;64069;46.396;48.102;2023-02-01T05:23:10;25.30;;;8.68;;
75488;SDS011;64069;46.396;48.102;2023-02-01T05:25:36;21.38;;;8.63;;
75488;SDS011;64069;46.396;48.102;2023-02-01T05:28:03;16.05;;;5.20;;
75488;SDS011;64069;46.396;48.102;2023-02-01T05:30:29;28.30;;;9.10;;
75488;SDS011;64069;46.396;48.102;2023-02-01T05:32:57;28.73;;;10.05;;
75488;SDS011;64069;46.396;48.102;2023-02-01T05:35:23;27.58;;;9.75;;
75488;SDS011;64069;46.396;48.102;2023-02-01T05:37:49;17.92;;;7.60;;
75488;SDS011;64069;46.396;48.102;2023-02-01T05:40:15;32.58;;;13.32;;
75488;SDS011;64069;46.396;48.102;2023-02-01T05:42:41;38.95;;;13.13;;
75488;SDS011;64069;46.396;48.102;2023-02-01T05:45:07;36.35;;;14.20;;
75488;SDS011;64069;46.396;48.102;2023-02-01T05:47:34;28.85;;;10.80;;
75488;SDS011;64069;46.396;48.102;2023-02-01T05:50:00;29.88;;;13.00;;
75488;SDS011;64069;46.396;48.102;2023-02-01T05:52:26;29.65;;;11.63;;
75488;SDS011;64069;46.396;48.102;2023-02-01T05:54:51;26.08;;;10.55;;
75488;SDS011;64069;46.396;48.102;2023-02-01T05:57:18;32.72;;;13.77;;
75488;SDS011;64069;46.396;48.102;2023-02-01T05:59:44;31.42;;;13.98;;
75488;SDS011;64069;46.396;48.102;2023-02-01T06:02:14;35.08;;;12.88;;
75488;SDS011;64069;46.396;48.102;2023-02-01T06:04:41;27.33;;;13.15;;
75488;SDS011;64069;46.396;48.102;2023-02-01T06:07:07;34.17;;;12.75;;
75488;SDS011;64069;46.396;48.102;2023-02-01T06:09:35;41.72;;;18.27;;
75488;SDS011;64069;46.396;48.102;2023-02-01T06:12:02;31.15;;;16.55;;
75488;SDS011;64069;46.396;48.102;2023-02-01T06:14:29;40.85;;;19.95;;
75488;SDS011;64069;46.396;48.102;2023-02-01T06:16:55;43.95;;;17.35;;
75488;SDS011;64069;46.396;48.102;2023-02-01T06:19:22;35.85;;;15.02;;
75488;SDS011;64069;46.396;48.102;2023-02-01T06:21:48;41.20;;;15.95;;
75488;SDS011;64069;46.396;48.102;2023-02-01T06:24:14;42.70;;;18.80;;
75488;SDS011;64069;46.396;48.102;2023-02-01T06:26:40;45.88;;;21.13;;
75488;SDS011;64069;46.396;48.102;2023-02-01T06:29:10;34.45;;;16.17;;
75488;SDS011;64069;46.396;48.102;2023-02-01T06:31:43;46.20;;;20.13;;
75488;SDS011;64069;46.396;48.102;2023-02-01T06:34:09;33.17;;;17.08;;
75488;SDS011;64069;46.396;48.102;2023-02-01T06:36:35;32.05;;;15.60;;
75488;SDS011;64069;46.396;48.102;2023-02-01T06:39:01;43.13;;;15.77;;
75488;SDS011;64069;46.396;48.102;2023-02-01T06:41:30;43.67;;;18.25;;
75488;SDS011;64069;46.396;48.102;2023-02-01T06:43:56;40.03;;;14.98;;
75488;SDS011;64069;46.396;48.102;2023-02-01T06:46:22;41.83;;;15.45;;
75488;SDS011;64069;46.396;48.102;2023-02-01T06:48:48;35.13;;;13.32;;
75488;SDS011;64069;46.396;48.102;2023-02-01T06:51:19;43.30;;;15.85;;
75488;SDS011;64069;46.396;48.102;2023-02-01T06:53:49;29.08;;;13.57;;
75488;SDS011;64069;46.396;48.102;2023-02-01T06:56:15;28.50;;;13.35;;
75488;SDS011;64069;46.396;48.102;2023-02-01T06:58:46;28.40;;;10.88;;
75488;SDS011;64069;46.396;48.102;2023-02-01T07:01:12;26.13;;;12.40;;
75488;SDS011;64069;46.396;48.102;2023-02-01T07:03:39;25.60;;;11.98;;
75488;SDS011;64069;46.396;48.102;2023-02-01T07:06:05;30.20;;;13.82;;
75488;SDS011;64069;46.396;48.102;2023-02-01T07:08:33;31.05;;;13.07;;
75488;SDS011;64069;46.396;48.102;2023-02-01T07:11:01;47.50;;;15.57;;
75488;SDS011;64069;46.396;48.102;2023-02-01T07:13:35;30.38;;;12.88;;
75488;SDS011;64069;46.396;48.102;2023-02-01T07:16:04;27.15;;;11.20;;
75488;SDS011;64069;46.396;48.102;2023-02-01T07:18:32;29.80;;;12.70;;
75488;SDS011;64069;46.396;48.102;2023-02-01T07:20:58;35.80;;;12.60;;
75488;SDS011;64069;46.396;48.102;2023-02-01T07:23:57;28.67;;;13.50;;
75488;SDS011;64069;46.396;48.102;2023-02-01T07:26:23;31.63;;;14.52;;
75488;SDS011;64069;46.396;48.102;2023-02-01T07:28:49;26.88;;;10.55;;
75488;SDS011;64069;46.396;48.102;2023-02-01T07:31:16;29.60;;;14.02;;
75488;SDS011;64069;46.396;48.102;2023-02-01T07:33:45;25.17;;;11.98;;
75488;SDS011;64069;46.396;48.102;2023-02-01T07:36:13;26.58;;;11.93;;
75488;SDS011;64069;46.396;48.102;2023-02-01T07:38:41;29.50;;;11.20;;
75488;SDS011;64069;46.396;48.102;2023-02-01T07:41:07;26.50;;;12.07;;
75488;SDS011;64069;46.396;48.102;2023-02-01T07:43:34;30.45;;;10.85;;
75488;SDS011;64069;46.396;48.102;2023-02-01T07:46:00;30.45;;;10.75;;
75488;SDS011;64069;46.396;48.102;2023-02-01T07:48:27;23.42;;;10.02;;
75488;SDS011;64069;46.396;48.102;2023-02-01T07:51:04;26.98;;;10.32;;
75488;SDS011;64069;46.396;48.102;2023-02-01T07:53:31;19.40;;;9.25;;
75488;SDS011;64069;46.396;48.102;2023-02-01T07:55:58;28.17;;;10.50;;
75488;SDS011;64069;46.396;48.102;2023-02-01T07:58:24;31.30;;;11.13;;
75488;SDS011;64069;46.396;48.102;2023-02-01T08:00:51;26.02;;;10.02;;
75488;SDS011;64069;46.396;48.102;2023-02-01T08:03:39;26.63;;;11.43;;
75488;SDS011;64069;46.396;48.102;2023-02-01T08:06:06;21.67;;;9.93;;
75488;SDS011;64069;46.396;48.102;2023-02-01T08:08:35;36.13;;;11.32;;
75488;SDS011;64069;46.396;48.102;2023-02-01T08:11:02;31.20;;;10.40;;
75488;SDS011;64069;46.396;48.102;2023-02-01T08:13:30;29.40;;;10.52;;
75488;SDS011;64069;46.396;48.102;2023-02-01T08:15:59;29.33;;;10.57;;
75488;SDS011;64069;46.396;48.102;2023-02-01T08:18:26;31.63;;;10.80;;
75488;SDS011;64069;46.396;48.102;2023-02-01T08:20:52;20.30;;;10.00;;
75488;SDS011;64069;46.396;48.102;2023-02-01T08:23:20;24.60;;;10.75;;
75488;SDS011;64069;46.396;48.102;2023-02-01T08:25:46;25.30;;;10.43;;
75488;SDS011;64069;46.396;48.102;2023-02-01T08:28:12;28.20;;;11.30;;
75488;SDS011;64069;46.396;48.102;2023-02-01T08:30:38;25.73;;;11.32;;
75488;SDS011;64069;46.396;48.102;2023-02-01T08:33:05;31.98;;;12.70;;
75488;SDS011;64069;46.396;48.102;2023-02-01T08:35:34;25.73;;;9.90;;
75488;SDS011;64069;46.396;48.102;2023-02-01T08:38:01;25.73;;;9.32;;
75488;SDS011;64069;46.396;48.102;2023-02-01T08:40:28;25.20;;;9.70;;
75488;SDS011;64069;46.396;48.102;2023-02-01T08:42:54;24.48;;;9.30;;
75488;SDS011;64069;46.396;48.102;2023-02-01T08:45:22;23.80;;;8.60;;
75488;SDS011;64069;46.396;48.102;2023-02-01T08:47:53;23.55;;;9.15;;
75488;SDS011;64069;46.396;48.102;2023-02-01T08:50:19;23.45;;;9.65;;
75488;SDS011;64069;46.396;48.102;2023-02-01T08:52:46;26.15;;;9.18;;
75488;SDS011;64069;46.396;48.102;2023-02-01T08:55:13;28.70;;;10.10;;
75488;SDS011;64069;46.396;48.102;2023-02-01T08:57:46;27.92;;;9.93;;
75488;SDS011;64069;46.396;48.102;2023-02-01T09:00:13;24.23;;;9.32;;
75488;SDS011;64069;46.396;48.102;2023-02-01T09:02:41;25.10;;;9.40;;
75488;SDS011;64069;46.396;48.102;2023-02-01T09:05:11;23.23;;;8.98;;
75488;SDS011;64069;46.396;48.102;2023-02-01T09:07:39;21.23;;;8.80;;
75488;SDS011;64069;46.396;48.102;2023-02-01T09:10:05;22.67;;;8.95;;
75488;SDS011;64069;46.396;48.102;2023-02-01T09:12:32;31.63;;;8.90;;
75488;SDS011;64069;46.396;48.102;2023-02-01T09:14:58;30.58;;;11.38;;
75488;SDS011;64069;46.396;48.102;2023-02-01T09:17:28;22.75;;;9.43;;
75488;SDS011;64069;46.396;48.102;2023-02-01T09:19:54;27.42;;;9.18;;
75488;SDS011;64069;46.396;48.102;2023-02-01T09:22:25;25.52;;;9.57;;
75488;SDS011;64069;46.396;48.102;2023-02-01T09:24:51;27.45;;;9.52;;
75488;SDS011;64069;46.396;48.102;2023-02-01T09:27:18;28.67;;;10.73;;
75488;SDS011;64069;46.396;48.102;2023-02-01T09:29:48;18.02;;;8.10;;
75488;SDS011;64069;46.396;48.102;2023-02-01T09:32:22;21.20;;;8.30;;
75488;SDS011;64069;46.396;48.102;2023-02-01T09:34:49;21.30;;;8.00;;
75488;SDS011;64069;46.396;48.102;2023-02-01T09:37:15;22.65;;;9.20;;
75488;SDS011;64069;46.396;48.102;2023-02-01T09:39:45;16.77;;;6.80;;
75488;SDS011;64069;46.396;48.102;2023-02-01T09:45:23;25.60;;;8.82;;
75488;SDS011;64069;46.396;48.102;2023-02-01T09:47:57;25.80;;;7.85;;
75488;SDS011;64069;46.396;48.102;2023-02-01T09:50:34;25.13;;;8.15;;
75488;SDS011;64069;46.396;48.102;2023-02-01T09:53:18;23.35;;;7.15;;
75488;SDS011;64069;46.396;48.102;2023-02-01T09:56:14;20.60;;;7.57;;
75488;SDS011;64069;46.396;48.102;2023-02-01T09:59:00;18.75;;;7.75;;
75488;SDS011;64069;46.396;48.102;2023-02-01T10:01:45;21.90;;;8.48;;
75488;SDS011;64069;46.396;48.102;2023-02-01T10:04:12;23.98;;;8.45;;
75488;SDS011;64069;46.396;48.102;2023-02-01T10:20:57;19.80;;;6.10;;
75488;SDS011;64069;46.396;48.102;2023-02-01T10:29:59;22.10;;;7.65;;
75488;SDS011;64069;46.396;48.102;2023-02-01T10:32:35;18.77;;;6.53;;
75488;SDS011;64069;46.396;48.102;2023-02-01T10:35:08;22.58;;;7.68;;
75488;SDS011;64069;46.396;48.102;2023-02-01T10:37:48;23.77;;;7.90;;
75488;SDS011;64069;46.396;48.102;2023-02-01T10:42:51;143.80;;;19.73;;
75488;SDS011;64069;46.396;48.102;2023-02-01T10:45:20;23.92;;;7.13;;
75488;SDS011;64069;46.396;48.102;2023-02-01T10:47:50;21.92;;;7.78;;
75488;SDS011;64069;46.396;48.102;2023-02-01T10:53:17;21.35;;;7.78;;
75488;SDS011;64069;46.396;48.102;2023-02-01T10:58:18;20.33;;;8.82;;
75488;SDS011;64069;46.396;48.102;2023-02-01T11:00:58;30.48;;;8.68;;
75488;SDS011;64069;46.396;48.102;2023-02-01T11:06:02;24.23;;;8.00;;
75488;SDS011;64069;46.396;48.102;2023-02-01T11:08:44;30.13;;;7.60;;
75488;SDS011;64069;46.396;48.102;2023-02-01T11:11:15;25.00;;;7.90;;
75488;SDS011;64069;46.396;48.102;2023-02-01T11:13:42;25.25;;;8.75;;
75488;SDS011;64069;46.396;48.102;2023-02-01T11:16:12;27.85;;;8.63;;
75488;SDS011;64069;46.396;48.102;2023-02-01T11:18:40;19.48;;;7.97;;
75488;SDS011;64069;46.396;48.102;2023-02-01T11:21:08;23.40;;;8.77;;
75488;SDS011;64069;46.396;48.102;2023-02-01T11:23:39;29.77;;;12.38;;
75488;SDS011;64069;46.396;48.102;2023-02-01T11:26:20;28.17;;;8.75;;
75488;SDS011;64069;46.396;48.102;2023-02-01T11:28:54;33.60;;;11.05;;
75488;SDS011;64069;46.396;48.102;2023-02-01T11:31:35;24.23;;;8.38;;
75488;SDS011;64069;46.396;48.102;2023-02-01T11:34:06;25.05;;;9.90;;
75488;SDS011;64069;46.396;48.102;2023-02-01T11:36:45;21.08;;;8.10;;
75488;SDS011;64069;46.396;48.102;2023-02-01T11:41:55;44.88;;;13.02;;
75488;SDS011;64069;46.396;48.102;2023-02-01T11:47:22;26.65;;;9.57;;
75488;SDS011;64069;46.396;48.102;2023-02-01T11:49:52;30.77;;;9.70;;
75488;SDS011;64069;46.396;48.102;2023-02-01T11:55:14;37.03;;;11.63;;
75488;SDS011;64069;46.396;48.102;2023-02-01T11:58:06;24.88;;;9.13;;
75488;SDS011;64069;46.396;48.102;2023-02-01T12:20:18;25.85;;;8.48;;
75488;SDS011;64069;46.396;48.102;2023-02-01T12:42:01;64.75;;;25.75;;
75488;SDS011;64069;46.396;48.102;2023-02-01T12:44:35;57.40;;;22.33;;
75488;SDS011;64069;46.396;48.102;2023-02-01T12:47:22;80.35;;;30.55;;
75488;SDS011;64069;46.396;48.102;2023-02-01T12:55:22;34.72;;;13.88;;
75488;SDS011;64069;46.396;48.102;2023-02-01T12:58:24;40.85;;;17.02;;
75488;SDS011;64069;46.396;48.102;2023-02-01T13:01:05;28.02;;;9.48;;
75488;SDS011;64069;46.396;48.102;2023-02-01T13:03:36;31.52;;;10.95;;
75488;SDS011;64069;46.396;48.102;2023-02-01T13:11:29;28.83;;;9.30;;
75488;SDS011;64069;46.396;48.102;2023-02-01T13:17:18;26.92;;;10.55;;
75488;SDS011;64069;46.396;48.102;2023-02-01T13:20:03;23.33;;;8.38;;
75488;SDS011;64069;46.396;48.102;2023-02-01T13:22:42;19.60;;;8.40;;
75488;SDS011;64069;46.396;48.102;2023-02-01T13:25:34;26.42;;;9.80;;
75488;SDS011;64069;46.396;48.102;2023-02-01T13:42:22;25.30;;;8.52;;
75488;SDS011;64069;46.396;48.102;2023-02-01T13:45:01;28.05;;;8.80;;
75488;SDS011;64069;46.396;48.102;2023-02-01T13:47:50;23.08;;;8.52;;
75488;SDS011;64069;46.396;48.102;2023-02-01T13:53:00;32.40;;;11.10;;
75488;SDS011;64069;46.396;48.102;2023-02-01T13:55:40;29.40;;;10.23;;
75488;SDS011;64069;46.396;48.102;2023-02-01T13:58:13;30.48;;;8.20;;
75488;SDS011;64069;46.396;48.102;2023-02-01T14:00:43;18.75;;;7.63;;
75488;SDS011;64069;46.396;48.102;2023-02-01T14:03:22;34.60;;;9.40;;
75488;SDS011;64069;46.396;48.102;2023-02-01T14:06:55;22.27;;;7.80;;
75488;SDS011;64069;46.396;48.102;2023-02-01T14:11:50;34.80;;;12.13;;
75488;SDS011;64069;46.396;48.102;2023-02-01T14:16:42;39.17;;;13.35;;
75488;SDS011;64069;46.396;48.102;2023-02-01T14:19:33;36.50;;;12.82;;
75488;SDS011;64069;46.396;48.102;2023-02-01T14:24:52;35.10;;;9.25;;
75488;SDS011;64069;46.396;48.102;2023-02-01T14:27:25;36.03;;;10.75;;
75488;SDS011;64069;46.396;48.102;2023-02-01T14:29:57;30.52;;;10.90;;
75488;SDS011;64069;46.396;48.102;2023-02-01T14:32:30;27.00;;;9.93;;
75488;SDS011;64069;46.396;48.102;2023-02-01T14:35:05;26.67;;;9.27;;
75488;SDS011;64069;46.396;48.102;2023-02-01T14:37:36;36.17;;;8.95;;
75488;SDS011;64069;46.396;48.102;2023-02-01T14:47:48;28.20;;;8.95;;
75488;SDS011;64069;46.396;48.102;2023-02-01T15:01:14;30.30;;;9.90;;
75488;SDS011;64069;46.396;48.102;2023-02-01T15:03:48;26.58;;;9.27;;
75488;SDS011;64069;46.396;48.102;2023-02-01T15:06:29;32.25;;;8.45;;
75488;SDS011;64069;46.396;48.102;2023-02-01T15:09:03;22.90;;;7.80;;
75488;SDS011;64069;46.396;48.102;2023-02-01T15:11:56;25.48;;;8.75;;
75488;SDS011;64069;46.396;48.102;2023-02-01T15:14:30;30.95;;;9.30;;
75488;SDS011;64069;46.396;48.102;2023-02-01T15:17:16;28.90;;;9.05;;
75488;SDS011;64069;46.396;48.102;2023-02-01T15:20:01;22.60;;;9.50;;
75488;SDS011;64069;46.396;48.102;2023-02-01T15:22:51;30.10;;;8.82;;
75488;SDS011;64069;46.396;48.102;2023-02-01T15:25:20;35.75;;;9.60;;
75488;SDS011;64069;46.396;48.102;2023-02-01T15:27:48;29.40;;;8.80;;
75488;SDS011;64069;46.396;48.102;2023-02-01T15:30:22;30.58;;;9.82;;
75488;SDS011;64069;46.396;48.102;2023-02-01T15:33:03;38.90;;;12.40;;
75488;SDS011;64069;46.396;48.102;2023-02-01T15:35:43;30.35;;;9.52;;
75488;SDS011;64069;46.396;48.102;2023-02-01T15:41:05;28.85;;;7.82;;
75488;SDS011;64069;46.396;48.102;2023-02-01T15:43:39;27.30;;;8.27;;
75488;SDS011;64069;46.396;48.102;2023-02-01T15:46:10;23.85;;;7.03;;
75488;SDS011;64069;46.396;48.102;2023-02-01T15:48:43;20.17;;;7.22;;
75488;SDS011;64069;46.396;48.102;2023-02-01T15:51:16;17.85;;;6.68;;
75488;SDS011;64069;46.396;48.102;2023-02-01T15:53:44;21.13;;;7.88;;
75488;SDS011;64069;46.396;48.102;2023-02-01T15:56:17;22.33;;;7.28;;
75488;SDS011;64069;46.396;48.102;2023-02-01T15:58:55;24.38;;;8.43;;
75488;SDS011;64069;46.396;48.102;2023-02-01T16:01:23;25.52;;;8.73;;
75488;SDS011;64069;46.396;48.102;2023-02-01T16:03:54;24.48;;;7.60;;
75488;SDS011;64069;46.396;48.102;2023-02-01T16:06:44;23.95;;;8.23;;
75488;SDS011;64069;46.396;48.102;2023-02-01T16:09:14;26.33;;;7.65;;
75488;SDS011;64069;46.396;48.102;2023-02-01T16:12:03;32.50;;;7.07;;
75488;SDS011;64069;46.396;48.102;2023-02-01T16:14:28;22.85;;;7.78;;
75488;SDS011;64069;46.396;48.102;2023-02-01T16:16:55;29.75;;;7.63;;
75488;SDS011;64069;46.396;48.102;2023-02-01T16:19:23;23.00;;;8.13;;
75488;SDS011;64069;46.396;48.102;2023-02-01T16:21:53;24.58;;;7.55;;
75488;SDS011;64069;46.396;48.102;2023-02-01T16:24:20;27.50;;;9.23;;
75488;SDS011;64069;46.396;48.102;2023-02-01T16:26:51;23.10;;;8.93;;
75488;SDS011;64069;46.396;48.102;2023-02-01T16:29:17;28.10;;;9.80;;
75488;SDS011;64069;46.396;48.102;2023-02-01T16:31:47;37.80;;;9.80;;
75488;SDS011;64069;46.396;48.102;2023-02-01T16:34:15;33.05;;;10.68;;
75488;SDS011;64069;46.396;48.102;2023-02-01T16:36:48;27.48;;;9.75;;
75488;SDS011;64069;46.396;48.102;2023-02-01T16:39:19;28.00;;;9.23;;
75488;SDS011;64069;46.396;48.102;2023-02-01T16:41:46;31.85;;;10.30;;
75488;SDS011;64069;46.396;48.102;2023-02-01T16:44:15;27.58;;;10.05;;
75488;SDS011;64069;46.396;48.102;2023-02-01T16:46:42;25.10;;;8.88;;
75488;SDS011;64069;46.396;48.102;2023-02-01T16:49:23;34.85;;;9.93;;
75488;SDS011;64069;46.396;48.102;2023-02-01T16:51:55;27.23;;;9.10;;
75488;SDS011;64069;46.396;48.102;2023-02-01T16:54:24;26.50;;;8.32;;
75488;SDS011;64069;46.396;48.102;2023-02-01T16:56:51;32.33;;;10.15;;
75488;SDS011;64069;46.396;48.102;2023-02-01T16:59:19;32.75;;;11.38;;
75488;SDS011;64069;46.396;48.102;2023-02-01T17:01:45;36.35;;;9.45;;
75488;SDS011;64069;46.396;48.102;2023-02-01T17:04:11;31.38;;;10.23;;
75488;SDS011;64069;46.396;48.102;2023-02-01T17:06:37;23.90;;;9.07;;
75488;SDS011;64069;46.396;48.102;2023-02-01T17:09:10;33.00;;;8.95;;
75488;SDS011;64069;46.396;48.102;2023-02-01T17:11:36;22.33;;;7.50;;
75488;SDS011;64069;46.396;48.102;2023-02-01T17:14:36;27.25;;;8.90;;
75488;SDS011;64069;46.396;48.102;2023-02-01T17:16:59;25.35;;;8.40;;
75488;SDS011;64069;46.396;48.102;2023-02-01T17:19:25;25.92;;;9.25;;
75488;SDS011;64069;46.396;48.102;2023-02-01T17:21:53;27.42;;;9.98;;
75488;SDS011;64069;46.396;48.102;2023-02-01T17:24:22;23.70;;;8.75;;
75488;SDS011;64069;46.396;48.102;2023-02-01T17:26:50;28.20;;;8.25;;
75488;SDS011;64069;46.396;48.102;2023-02-01T17:29:16;31.30;;;9.27;;
75488;SDS011;64069;46.396;48.102;2023-02-01T17:31:43;29.88;;;8.63;;
75488;SDS011;64069;46.396;48.102;2023-02-01T17:34:15;29.67;;;8.18;;